Time;durP1;ratioP1;P1;durP2;ratioP2;P2;SDS_P1;SDS_P2;PMS_P1;PMS_P2;Temp;Humidity;BMP_temperature;BMP_pressure;BME280_temperature;BME280_humidity;BME280_pressure;Samples;Min_cycle;Max_cycle;Signal;HPM_P1;HPM_P2
2022/03/22 00:00:30;;;;;;;3.90;3.50;;;18.60;52.10;;;;;;5066244;28;20214;-20
2022/03/22 00:02:57;;;;;;;3.83;3.40;;;18.60;52.10;;;;;;5062268;28;20469;-21
2022/03/22 00:05:23;;;;;;;4.57;3.40;;;18.60;52.10;;;;;;5079535;28;20159;-17
2022/03/22 00:07:52;;;;;;;3.93;3.50;;;18.60;52.10;;;;;;5079488;28;20538;-18
2022/03/22 00:10:18;;;;;;;3.77;3.47;;;18.60;52.10;;;;;;5079574;28;20199;-21
2022/03/22 00:12:44;;;;;;;3.93;3.57;;;18.60;52.10;;;;;;5061728;28;20810;-19
2022/03/22 00:15:11;;;;;;;4.87;3.53;;;18.60;52.10;;;;;;5067768;28;20178;-17
2022/03/22 00:17:38;;;;;;;3.53;3.20;;;18.60;52.10;;;;;;5059355;28;20199;-18
2022/03/22 00:20:05;;;;;;;4.00;3.40;;;18.60;52.10;;;;;;5042468;28;20202;-18
2022/03/22 00:22:31;;;;;;;3.87;3.50;;;18.60;52.10;;;;;;5059700;28;20199;-20
2022/03/22 00:24:57;;;;;;;3.77;3.30;;;18.60;52.10;;;;;;5079477;28;20483;-19
2022/03/22 00:27:23;;;;;;;3.43;3.13;;;18.50;52.10;;;;;;5078916;28;20202;-19
2022/03/22 00:29:48;;;;;;;4.13;3.77;;;18.50;52.10;;;;;;5079507;28;20169;-18
2022/03/22 00:32:14;;;;;;;5.20;3.40;;;18.50;52.10;;;;;;5079311;28;20163;-18
2022/03/22 00:34:44;;;;;;;3.40;3.10;;;18.50;52.10;;;;;;5078834;28;20233;-17
2022/03/22 00:37:14;;;;;;;3.50;3.20;;;18.50;52.10;;;;;;5076972;28;20185;-18
2022/03/22 00:39:41;;;;;;;3.90;3.60;;;18.50;52.10;;;;;;5055078;28;20210;-19
2022/03/22 00:42:06;;;;;;;3.83;3.40;;;18.50;52.10;;;;;;5073599;28;20214;-17
2022/03/22 00:44:32;;;;;;;4.00;3.60;;;18.50;52.10;;;;;;5079238;28;20207;-18
2022/03/22 00:46:59;;;;;;;4.03;3.30;;;18.50;52.10;;;;;;5070495;28;20611;-19
2022/03/22 00:49:25;;;;;;;3.90;3.47;;;18.50;52.10;;;;;;5058614;28;20526;-17
2022/03/22 00:51:50;;;;;;;3.90;3.60;;;18.50;52.10;;;;;;5058854;28;20176;-18
2022/03/22 00:54:16;;;;;;;3.50;3.20;;;18.50;52.40;;;;;;5059708;28;20195;-20
2022/03/22 00:56:42;;;;;;;5.87;3.73;;;18.50;52.10;;;;;;5078535;28;20219;-20
2022/03/22 01:01:52;;;;;;;3.50;3.20;;;18.40;52.10;;;;;;5059340;28;20264;-20
2022/03/22 01:04:18;;;;;;;4.20;3.80;;;18.40;52.10;;;;;;5078655;28;20448;-19
2022/03/22 01:06:44;;;;;;;3.83;3.40;;;18.40;52.10;;;;;;5078770;28;20221;-19
2022/03/22 01:09:10;;;;;;;3.87;3.43;;;18.40;52.10;;;;;;5061132;28;20167;-21
2022/03/22 01:11:36;;;;;;;3.80;3.40;;;18.40;52.10;;;;;;5061618;28;20167;-19
2022/03/22 01:14:03;;;;;;;4.23;3.33;;;18.40;52.10;;;;;;5061315;28;20172;-18
2022/03/22 01:16:29;;;;;;;3.43;3.13;;;18.40;52.10;;;;;;5078510;28;20179;-18
2022/03/22 01:18:54;;;;;;;3.30;3.00;;;18.40;52.10;;;;;;5078631;28;20171;-19
2022/03/22 01:21:20;;;;;;;3.60;3.30;;;18.40;52.10;;;;;;5059950;28;20642;-20
2022/03/22 01:23:46;;;;;;;3.47;3.17;;;18.40;52.10;;;;;;5060311;28;20179;-20
2022/03/22 01:26:12;;;;;;;3.87;3.20;;;18.40;52.00;;;;;;5060247;28;20213;-19
2022/03/22 01:28:38;;;;;;;4.03;3.63;;;18.40;52.10;;;;;;5078164;28;20172;-18
2022/03/22 01:31:04;;;;;;;3.40;3.10;;;18.40;52.10;;;;;;5060953;28;20178;-18
2022/03/22 01:33:30;;;;;;;3.63;3.33;;;18.30;52.10;;;;;;5060744;28;20268;-20
2022/03/22 01:35:56;;;;;;;4.30;3.20;;;18.30;52.10;;;;;;5061245;28;20175;-17
2022/03/22 01:38:22;;;;;;;3.30;3.00;;;18.30;52.10;;;;;;5061045;28;20285;-20
2022/03/22 01:40:48;;;;;;;5.17;3.20;;;18.30;52.10;;;;;;5076616;28;20186;-18
2022/03/22 01:43:15;;;;;;;3.50;3.20;;;18.30;52.10;;;;;;5077450;28;20193;-21
2022/03/22 01:45:41;;;;;;;3.60;3.30;;;18.30;52.10;;;;;;5077122;28;20175;-18
2022/03/22 01:48:06;;;;;;;4.10;3.13;;;18.30;52.10;;;;;;5060031;28;20182;-18
2022/03/22 01:50:32;;;;;;;3.27;2.97;;;18.30;52.10;;;;;;5077630;28;20167;-18
2022/03/22 01:53:00;;;;;;;3.87;3.47;;;18.30;52.10;;;;;;5078005;28;20634;-17
2022/03/22 01:55:26;;;;;;;3.87;3.43;;;18.30;52.10;;;;;;5059624;28;20211;-21
2022/03/22 01:57:52;;;;;;;3.63;3.00;;;18.30;52.10;;;;;;5060453;28;20180;-16
2022/03/22 02:00:19;;;;;;;4.50;3.20;;;18.30;52.10;;;;;;5059611;28;20174;-17
2022/03/22 02:08:33;;;;;;;2.87;2.67;;;18.20;52.10;;;;;;5053972;28;20391;-21
2022/03/22 02:11:08;;;;;;;3.30;3.00;;;18.20;52.10;;;;;;5071195;28;20182;-18
2022/03/22 02:13:34;;;;;;;3.83;3.20;;;18.20;52.10;;;;;;5062078;28;20177;-21
2022/03/22 02:16:03;;;;;;;3.33;3.03;;;18.20;52.10;;;;;;5060018;28;20181;-18
2022/03/22 02:18:29;;;;;;;4.37;3.10;;;18.20;52.10;;;;;;5077638;28;20263;-17
2022/03/22 02:20:57;;;;;;;3.53;3.10;;;18.20;52.10;;;;;;5059689;28;20273;-20
2022/03/22 02:23:41;;;;;;;3.00;2.70;;;18.20;52.10;;;;;;5076428;28;20198;-21
2022/03/22 02:26:07;;;;;;;3.67;3.20;;;18.20;52.10;;;;;;5077415;28;20587;-22
2022/03/22 02:28:32;;;;;;;3.07;2.77;;;18.20;52.10;;;;;;5077400;28;20171;-20
2022/03/22 02:31:11;;;;;;;2.97;2.67;;;18.20;52.10;;;;;;5077187;28;20181;-21
2022/03/22 02:33:41;;;;;;;3.50;3.20;;;18.20;52.10;;;;;;5069476;28;20180;-20
2022/03/22 02:36:08;;;;;;;3.40;3.10;;;18.20;52.10;;;;;;5059514;28;20175;-17
2022/03/22 02:38:33;;;;;;;3.13;2.83;;;18.10;52.00;;;;;;5060013;28;20171;-20
2022/03/22 02:40:59;;;;;;;3.50;3.20;;;18.10;52.10;;;;;;5056167;28;20575;-20
2022/03/22 02:43:24;;;;;;;3.40;3.10;;;18.10;52.00;;;;;;5076504;28;20182;-19
2022/03/22 02:45:52;;;;;;;3.63;3.03;;;18.10;52.00;;;;;;5077293;28;20175;-18
2022/03/22 02:48:18;;;;;;;4.00;3.60;;;18.10;52.00;;;;;;5077301;28;20172;-20
2022/03/22 02:50:43;;;;;;;3.20;2.90;;;18.20;52.10;;;;;;5059805;28;20195;-19
2022/03/22 02:53:09;;;;;;;3.50;3.20;;;18.10;52.00;;;;;;5056576;28;20166;-20
2022/03/22 02:55:36;;;;;;;3.50;2.93;;;18.10;52.00;;;;;;5060284;28;20453;-17
2022/03/22 02:58:03;;;;;;;3.40;3.10;;;18.10;52.00;;;;;;5077434;28;20174;-17
2022/03/22 03:00:29;;;;;;;3.27;2.97;;;18.10;52.00;;;;;;5073368;28;20163;-21
2022/03/22 03:02:55;;;;;;;3.97;3.10;;;18.10;52.00;;;;;;5076994;28;20265;-23
2022/03/22 03:05:22;;;;;;;3.10;2.80;;;18.10;52.00;;;;;;5056384;28;20452;-18
2022/03/22 03:07:51;;;;;;;4.80;2.83;;;18.10;52.00;;;;;;5056488;28;20219;-18
2022/03/22 03:10:20;;;;;;;3.80;2.70;;;18.10;52.00;;;;;;5073072;28;20186;-19
2022/03/22 03:13:13;;;;;;;3.20;2.90;;;18.10;52.00;;;;;;5079293;28;20186;-18
2022/03/22 03:15:41;;;;;;;3.20;2.90;;;18.10;52.00;;;;;;5080172;28;20183;-18
2022/03/22 03:18:13;;;;;;;3.30;2.83;;;18.10;52.00;;;;;;5078267;28;20267;-17
2022/03/22 03:20:42;;;;;;;3.30;3.00;;;18.10;52.00;;;;;;5077756;28;20170;-18
2022/03/22 03:23:08;;;;;;;3.60;3.20;;;18.10;51.90;;;;;;5077188;28;20168;-18
2022/03/22 03:25:35;;;;;;;3.40;3.10;;;18.10;51.90;;;;;;5060675;28;20178;-18
2022/03/22 03:28:00;;;;;;;3.73;2.80;;;18.00;51.90;;;;;;5077725;28;20574;-18
2022/03/22 03:30:26;;;;;;;3.10;2.80;;;18.00;51.80;;;;;;5077121;28;20169;-17
2022/03/22 03:32:52;;;;;;;3.33;3.03;;;18.00;51.80;;;;;;5077689;28;20545;-20
2022/03/22 03:35:18;;;;;;;3.33;3.03;;;18.10;51.90;;;;;;5076575;28;20185;-18
2022/03/22 03:37:45;;;;;;;2.90;2.70;;;18.00;51.80;;;;;;5077779;28;20209;-21
2022/03/22 03:40:12;;;;;;;3.30;3.00;;;18.00;51.80;;;;;;5074911;28;20210;-17
2022/03/22 03:42:42;;;;;;;3.13;2.70;;;18.00;51.90;;;;;;5078248;28;20283;-19
2022/03/22 03:47:57;;;;;;;3.20;2.90;;;18.00;51.80;;;;;;5076395;28;20650;-17
2022/03/22 03:50:23;;;;;;;3.87;2.93;;;18.00;51.90;;;;;;5077825;28;20183;-17
2022/03/22 03:52:49;;;;;;;3.00;2.70;;;18.00;51.90;;;;;;5076850;28;20570;-18
2022/03/22 03:55:15;;;;;;;3.27;2.93;;;18.00;51.90;;;;;;5077373;28;20530;-17
2022/03/22 03:57:41;;;;;;;3.60;2.90;;;17.90;51.80;;;;;;5077824;28;20184;-17
2022/03/22 04:00:08;;;;;;;3.67;3.10;;;18.00;51.90;;;;;;5059266;28;20544;-19
2022/03/22 04:02:33;;;;;;;3.10;2.80;;;17.90;51.80;;;;;;5077541;28;20190;-20
2022/03/22 04:05:33;;;;;;;3.13;2.83;;;18.00;51.80;;;;;;5060115;28;20265;-17
2022/03/22 04:07:59;;;;;;;3.90;2.80;;;17.90;51.80;;;;;;5076324;28;20209;-18
2022/03/22 04:10:25;;;;;;;2.60;2.40;;;17.90;51.80;;;;;;5057699;28;20264;-17
2022/03/22 04:12:50;;;;;;;3.87;2.97;;;18.00;51.70;;;;;;5089790;28;20265;-18
2022/03/22 04:15:16;;;;;;;3.47;2.90;;;18.20;51.50;;;;;;5085655;28;20556;-16
2022/03/22 04:17:42;;;;;;;3.00;2.70;;;18.50;51.10;;;;;;5069898;28;20189;-22
2022/03/22 04:20:08;;;;;;;3.27;2.90;;;18.90;50.50;;;;;;5091042;28;20177;-18
2022/03/22 04:22:35;;;;;;;3.00;2.70;;;19.50;49.60;;;;;;5085385;28;20177;-16
2022/03/22 04:25:01;;;;;;;3.70;2.80;;;20.10;48.60;;;;;;5076916;28;20183;-19
2022/03/22 04:32:56;;;;;;;2.90;2.70;;;21.60;45.90;;;;;;5086518;28;20286;-18
2022/03/22 04:35:27;;;;;;;3.07;2.77;;;21.60;45.80;;;;;;5076668;28;20172;-19
2022/03/22 04:37:54;;;;;;;3.77;3.23;;;21.50;45.70;;;;;;5094768;28;20182;-17
2022/03/22 04:40:20;;;;;;;3.27;2.97;;;21.50;45.70;;;;;;5089560;28;20482;-18
2022/03/22 04:42:48;;;;;;;2.97;2.77;;;21.30;45.80;;;;;;5069383;28;20190;-20
2022/03/22 04:45:14;;;;;;;3.20;2.90;;;21.10;46.00;;;;;;5089712;28;20464;-17
2022/03/22 04:47:40;;;;;;;3.47;3.17;;;21.00;46.20;;;;;;5086395;28;20605;-17
2022/03/22 04:50:14;;;;;;;3.40;2.80;;;20.70;46.80;;;;;;5088252;28;20265;-20
2022/03/22 04:58:09;;;;;;;3.27;2.97;;;20.10;47.20;;;;;;5084620;28;20560;-18
2022/03/22 05:00:36;;;;;;;3.27;2.97;;;19.90;47.40;;;;;;5069151;28;20188;-19
2022/03/22 05:03:03;;;;;;;3.50;3.00;;;19.70;47.60;;;;;;5056258;28;20207;-19
2022/03/22 05:08:13;;;;;;;3.20;2.90;;;19.40;48.00;;;;;;5080032;28;20193;-22
2022/03/22 05:10:39;;;;;;;3.30;3.00;;;19.30;48.30;;;;;;5087549;28;20181;-24
2022/03/22 05:13:05;;;;;;;3.10;2.80;;;19.20;48.50;;;;;;5066095;28;20259;-20
2022/03/22 05:15:32;;;;;;;2.83;2.53;;;19.10;48.70;;;;;;5090016;28;20251;-18
2022/03/22 05:17:58;;;;;;;2.70;2.50;;;18.90;48.80;;;;;;5079200;28;20168;-18
2022/03/22 05:20:29;;;;;;;4.13;2.87;;;18.90;49.00;;;;;;5061054;28;20179;-17
2022/03/22 05:22:55;;;;;;;2.70;2.40;;;18.80;49.10;;;;;;5060375;28;20220;-17
2022/03/22 05:25:21;;;;;;;2.93;2.70;;;18.70;49.20;;;;;;5077889;28;20195;-18
2022/03/22 05:27:46;;;;;;;3.17;2.87;;;18.70;49.30;;;;;;5060259;28;20234;-21
2022/03/22 05:30:14;;;;;;;3.20;2.90;;;18.60;49.40;;;;;;5061293;28;20180;-18
2022/03/22 05:32:39;;;;;;;3.13;2.83;;;18.50;49.50;;;;;;5060658;28;20171;-18
2022/03/22 05:35:05;;;;;;;2.80;2.60;;;18.50;49.60;;;;;;5077619;28;20173;-17
2022/03/22 05:37:31;;;;;;;3.10;2.53;;;18.40;49.70;;;;;;5060232;28;20213;-20
2022/03/22 05:39:57;;;;;;;2.97;2.67;;;18.40;49.70;;;;;;5077359;28;20186;-18
2022/03/22 05:42:23;;;;;;;3.60;2.90;;;18.30;49.80;;;;;;5059393;28;20178;-21
2022/03/22 05:44:49;;;;;;;2.70;2.50;;;18.30;49.90;;;;;;5077693;28;20186;-19
2022/03/22 05:47:15;;;;;;;3.67;2.90;;;18.30;50.00;;;;;;5077259;28;20195;-18
2022/03/22 05:49:41;;;;;;;3.30;3.00;;;18.20;50.00;;;;;;5077694;28;20155;-20
2022/03/22 05:52:07;;;;;;;3.23;2.70;;;18.20;50.00;;;;;;5076700;28;20578;-17
2022/03/22 05:54:34;;;;;;;2.73;2.53;;;18.20;50.00;;;;;;5059998;28;20471;-18
2022/03/22 05:57:00;;;;;;;2.83;2.60;;;18.20;50.00;;;;;;5059378;28;20185;-17
2022/03/22 05:59:26;;;;;;;3.73;2.80;;;18.30;50.00;;;;;;5058677;28;20187;-17
2022/03/22 06:01:51;;;;;;;2.60;2.40;;;18.40;49.90;;;;;;5058734;28;20195;-22
2022/03/22 06:04:19;;;;;;;3.33;3.00;;;18.40;49.90;;;;;;5076446;28;20172;-18
2022/03/22 06:06:47;;;;;;;2.73;2.50;;;18.50;50.10;;;;;;5077142;28;20519;-20
2022/03/22 06:09:13;;;;;;;3.50;2.43;;;18.60;49.50;;;;;;5077637;28;20202;-20
2022/03/22 06:11:38;;;;;;;2.87;2.50;;;19.00;49.30;;;;;;5082939;28;20186;-29
2022/03/22 06:14:05;;;;;;;3.20;2.90;;;19.50;48.70;;;;;;5061423;28;20190;-18
2022/03/22 06:16:32;;;;;;;3.23;2.80;;;19.90;48.00;;;;;;5075865;28;20285;-17
2022/03/22 06:18:58;;;;;;;4.10;2.93;;;20.30;47.90;;;;;;5075672;28;20163;-17
2022/03/22 06:21:24;;;;;;;3.80;2.73;;;20.50;47.00;;;;;;5058278;28;20172;-20
2022/03/22 06:23:50;;;;;;;3.67;3.10;;;20.70;46.80;;;;;;5076258;28;20181;-18
2022/03/22 06:26:17;;;;;;;3.57;3.27;;;20.80;46.50;;;;;;5057759;28;20201;-23
2022/03/22 06:28:43;;;;;;;3.17;2.80;;;20.90;46.30;;;;;;5057095;28;20231;-20
2022/03/22 06:31:09;;;;;;;3.50;3.03;;;21.00;46.10;;;;;;5057929;28;20174;-19
2022/03/22 06:33:35;;;;;;;4.23;3.07;;;21.00;46.00;;;;;;5057346;28;20185;-19
2022/03/22 06:36:05;;;;;;;3.70;3.37;;;21.10;45.90;;;;;;5075383;28;20608;-21
2022/03/22 06:38:32;;;;;;;4.13;3.53;;;21.00;45.80;;;;;;5074038;28;20182;-20
2022/03/22 06:40:58;;;;;;;3.77;3.47;;;21.00;45.80;;;;;;5074303;28;20552;-18
2022/03/22 06:43:25;;;;;;;3.73;3.43;;;20.90;45.80;;;;;;5059664;28;20607;-21
2022/03/22 06:45:51;;;;;;;5.03;3.47;;;20.90;45.80;;;;;;5068496;28;20282;-20
2022/03/22 06:48:16;;;;;;;4.27;3.73;;;20.80;46.30;;;;;;5092046;28;20260;-21
2022/03/22 06:50:43;;;;;;;5.60;3.70;;;20.80;45.90;;;;;;5073331;28;20298;-20
2022/03/22 06:53:09;;;;;;;5.13;3.83;;;20.70;45.90;;;;;;5064764;28;20619;-21
2022/03/22 06:55:41;;;;;;;4.33;3.93;;;20.60;45.90;;;;;;5089650;28;20195;-22
2022/03/22 06:58:07;;;;;;;5.00;3.90;;;20.60;46.00;;;;;;5088247;28;20186;-19
2022/03/22 07:00:33;;;;;;;4.93;4.30;;;20.60;46.00;;;;;;5072485;28;20320;-22
2022/03/22 07:03:00;;;;;;;4.20;3.80;;;20.50;45.90;;;;;;5071859;28;20171;-19
2022/03/22 07:05:28;;;;;;;4.67;3.60;;;20.50;45.90;;;;;;5064457;28;20205;-18
2022/03/22 07:07:53;;;;;;;4.63;3.80;;;20.50;45.90;;;;;;5083790;28;20208;-23
2022/03/22 07:10:19;;;;;;;4.20;3.80;;;20.50;45.90;;;;;;5088718;28;20228;-22
2022/03/22 07:12:53;;;;;;;5.53;4.20;;;20.50;45.90;;;;;;5073635;28;20284;-21
2022/03/22 07:15:26;;;;;;;5.13;4.23;;;20.50;45.90;;;;;;5069243;28;20186;-22
2022/03/22 07:17:53;;;;;;;4.67;4.27;;;20.60;45.90;;;;;;5077973;28;20188;-20
2022/03/22 07:20:22;;;;;;;6.10;4.30;;;20.60;45.90;;;;;;5062913;28;20515;-18
2022/03/22 07:22:48;;;;;;;5.87;4.53;;;20.60;45.90;;;;;;5058119;28;20588;-22
2022/03/22 07:25:13;;;;;;;5.07;4.40;;;20.60;45.80;;;;;;5058309;28;20174;-22
2022/03/22 07:27:39;;;;;;;6.27;4.50;;;20.60;45.90;;;;;;5076626;28;20202;-19
2022/03/22 07:30:10;;;;;;;5.67;5.00;;;20.60;45.80;;;;;;5063904;28;20277;-22
2022/03/22 07:32:36;;;;;;;5.20;4.57;;;20.60;45.80;;;;;;5059469;28;20203;-21
2022/03/22 07:35:02;;;;;;;6.80;4.73;;;20.70;45.80;;;;;;5064260;28;20203;-21
2022/03/22 07:37:32;;;;;;;4.87;4.40;;;20.70;45.80;;;;;;5066704;28;20199;-24
2022/03/22 07:39:59;;;;;;;6.13;4.87;;;20.70;45.70;;;;;;5080134;28;20247;-20
2022/03/22 07:42:27;;;;;;;6.13;4.63;;;20.80;45.70;;;;;;5079262;28;20194;-19
2022/03/22 07:44:57;;;;;;;6.30;4.67;;;20.80;45.60;;;;;;5077651;28;20275;-24
2022/03/22 07:47:24;;;;;;;5.87;4.93;;;20.90;45.60;;;;;;5084884;28;20218;-23
2022/03/22 07:55:20;;;;;;;5.37;4.80;;;21.00;45.40;;;;;;5087760;28;20182;-23
2022/03/22 07:57:46;;;;;;;4.80;4.30;;;21.10;45.30;;;;;;5062645;28;20176;-18
2022/03/22 08:00:13;;;;;;;6.10;4.90;;;21.10;45.30;;;;;;5082265;28;20186;-21
2022/03/22 08:02:51;;;;;;;5.53;4.53;;;21.10;45.20;;;;;;5085664;28;20806;-22
2022/03/22 08:05:17;;;;;;;5.73;4.80;;;21.20;45.20;;;;;;5077991;28;20604;-20
2022/03/22 08:07:43;;;;;;;7.17;4.83;;;21.20;45.10;;;;;;5061660;28;20208;-22
2022/03/22 08:10:09;;;;;;;9.47;4.83;;;21.30;45.00;;;;;;5086701;28;20199;-21
2022/03/22 08:12:35;;;;;;;6.33;4.80;;;21.40;45.00;;;;;;5064902;28;20170;-21
2022/03/22 08:15:00;;;;;;;5.37;4.83;;;21.40;44.90;;;;;;5088598;28;20228;-23
2022/03/22 08:17:27;;;;;;;5.67;4.97;;;21.50;44.80;;;;;;5076988;28;20167;-21
2022/03/22 08:19:53;;;;;;;5.57;4.87;;;21.50;44.70;;;;;;5059331;28;20184;-21
2022/03/22 08:22:19;;;;;;;5.40;4.90;;;21.60;44.70;;;;;;5076796;28;20713;-21
2022/03/22 08:24:45;;;;;;;5.33;4.60;;;21.70;44.70;;;;;;5077264;28;20717;-19
2022/03/22 08:27:10;;;;;;;5.77;4.87;;;21.70;44.60;;;;;;5076218;28;20593;-20
2022/03/22 08:29:36;;;;;;;5.73;4.77;;;21.80;44.50;;;;;;5076952;28;20521;-22
2022/03/22 08:32:03;;;;;;;5.40;4.90;;;21.90;44.50;;;;;;5076938;28;20438;-21
2022/03/22 08:34:29;;;;;;;5.50;5.00;;;21.90;44.40;;;;;;5063181;28;20263;-22
2022/03/22 08:36:54;;;;;;;5.90;5.30;;;22.00;44.30;;;;;;5077474;28;20262;-22
2022/03/22 08:39:20;;;;;;;5.83;4.83;;;22.00;44.20;;;;;;5059966;28;20189;-22
2022/03/22 08:41:47;;;;;;;6.10;5.50;;;22.10;44.20;;;;;;5055141;28;20270;-19
2022/03/22 08:44:13;;;;;;;6.00;5.20;;;22.10;44.10;;;;;;5064431;28;20229;-21
2022/03/22 08:46:38;;;;;;;5.77;5.17;;;22.20;44.00;;;;;;5059199;28;20191;-22
2022/03/22 08:49:07;;;;;;;5.93;5.00;;;22.20;43.90;;;;;;5089733;28;20166;-20
2022/03/22 08:51:33;;;;;;;6.13;5.07;;;22.30;43.90;;;;;;5059296;28;20178;-21
2022/03/22 08:53:58;;;;;;;7.03;5.20;;;22.40;43.80;;;;;;5075455;28;20532;-19
2022/03/22 08:56:24;;;;;;;7.60;5.40;;;22.40;43.70;;;;;;5058292;28;20629;-23
2022/03/22 08:58:52;;;;;;;7.37;5.43;;;22.40;43.70;;;;;;5076919;28;20164;-22
2022/03/22 09:01:22;;;;;;;5.90;5.30;;;22.50;43.60;;;;;;5077079;28;20237;-22
2022/03/22 09:06:07;;;;;;;5.28;4.78;;;22.60;43.60;;;;;;5062637;28;20176;-21
2022/03/22 09:06:33;;;;;;;6.05;5.20;;;22.60;43.50;;;;;;5076318;28;20230;-20
2022/03/22 09:09:00;;;;;;;5.78;5.10;;;22.70;43.40;;;;;;5057663;28;20226;-19
2022/03/22 09:11:26;;;;;;;5.90;5.30;;;22.80;43.40;;;;;;5076604;28;20293;-20
2022/03/22 09:13:54;;;;;;;5.82;5.18;;;22.80;43.30;;;;;;5058649;28;20184;-21
2022/03/22 09:16:21;;;;;;;6.68;5.38;;;22.80;43.20;;;;;;5076036;28;20210;-22
2022/03/22 09:18:48;;;;;;;6.25;5.38;;;22.90;43.10;;;;;;5058120;28;20174;-21
2022/03/22 09:21:16;;;;;;;5.85;4.68;;;22.90;43.10;;;;;;5058253;28;20560;-22
2022/03/22 09:23:42;;;;;;;5.13;4.63;;;23.00;43.10;;;;;;5076437;28;20164;-22
2022/03/22 09:26:08;;;;;;;6.65;5.13;;;23.00;43.00;;;;;;5058463;28;20225;-19
2022/03/22 09:28:40;;;;;;;5.93;4.90;;;23.10;43.00;;;;;;5095861;28;20171;-18
2022/03/22 09:31:07;;;;;;;7.30;5.20;;;23.10;42.90;;;;;;5079897;28;20172;-18
2022/03/22 09:33:33;;;;;;;5.40;4.82;;;23.10;42.90;;;;;;5075259;28;20183;-23
2022/03/22 09:35:58;;;;;;;5.70;5.00;;;23.00;42.90;;;;;;5058722;28;20171;-20
2022/03/22 09:38:24;;;;;;;5.93;5.25;;;22.60;43.00;;;;;;5074503;28;20171;-23
2022/03/22 09:40:53;;;;;;;5.93;5.13;;;22.30;43.20;;;;;;5049208;28;20175;-20
2022/03/22 09:43:22;;;;;;;5.13;4.65;;;22.00;43.60;;;;;;5069242;28;20597;-22
2022/03/22 09:45:51;;;;;;;6.30;5.30;;;21.80;43.90;;;;;;5051523;28;20241;-22
2022/03/22 09:48:17;;;;;;;5.35;4.85;;;21.60;44.20;;;;;;5048145;28;20203;-19
2022/03/22 09:53:28;;;;;;;5.35;4.82;;;21.30;44.60;;;;;;5066153;28;20182;-19
2022/03/22 09:55:53;;;;;;;5.30;4.80;;;21.20;44.70;;;;;;5069552;28;20172;-20
2022/03/22 09:58:19;;;;;;;5.57;4.80;;;21.20;44.90;;;;;;5052396;28;20282;-20
2022/03/22 10:00:45;;;;;;;5.68;5.10;;;21.10;45.00;;;;;;5068483;28;20187;-22
2022/03/22 10:03:21;;;;;;;5.50;5.00;;;21.00;45.00;;;;;;5067993;28;20172;-22
2022/03/22 10:06:05;;;;;;;5.60;5.05;;;21.00;45.10;;;;;;5051131;28;20186;-21
2022/03/22 10:08:31;;;;;;;5.38;4.88;;;21.00;45.10;;;;;;5050308;28;20332;-19
2022/03/22 10:10:58;;;;;;;5.70;5.10;;;21.00;45.10;;;;;;5069913;28;20179;-22
2022/03/22 10:13:25;;;;;;;5.60;5.10;;;21.00;45.20;;;;;;5068707;28;20229;-20
2022/03/22 10:15:50;;;;;;;5.57;4.85;;;21.00;45.30;;;;;;5069834;28;20171;-23
2022/03/22 10:18:24;;;;;;;5.30;4.80;;;21.00;45.30;;;;;;5068676;28;20174;-20
2022/03/22 10:20:59;;;;;;;5.03;4.53;;;20.90;45.30;;;;;;5064439;28;20195;-20
2022/03/22 10:23:25;;;;;;;4.80;4.40;;;20.90;45.40;;;;;;5051503;28;20355;-19
2022/03/22 10:26:05;;;;;;;5.32;4.82;;;20.90;45.40;;;;;;5050534;28;20323;-20
2022/03/22 10:28:32;;;;;;;10.63;5.27;;;20.90;45.40;;;;;;5069513;28;20178;-21
2022/03/22 10:30:59;;;;;;;10.63;5.13;;;21.00;44.90;;;;;;5069167;28;20472;-20
2022/03/22 10:36:46;;;;;;;9.40;5.30;;;20.90;45.20;;;;;;5066056;28;20562;-21
2022/03/22 10:39:14;;;;;;;6.00;5.40;;;20.90;45.20;;;;;;5068752;28;20564;-19
2022/03/22 10:41:44;;;;;;;12.27;5.73;;;20.90;45.10;;;;;;5071732;28;20171;-22
2022/03/22 10:44:11;;;;;;;7.27;4.70;;;20.90;45.00;;;;;;5075063;28;20575;-21
2022/03/22 10:46:44;;;;;;;6.63;4.70;;;20.90;45.10;;;;;;5075033;28;20194;-21
2022/03/22 10:49:15;;;;;;;5.53;4.77;;;20.90;45.20;;;;;;5072776;28;20180;-20
2022/03/22 10:51:49;;;;;;;6.67;5.20;;;20.90;45.20;;;;;;5075227;28;20171;-21
2022/03/22 10:54:18;;;;;;;7.20;5.07;;;21.00;45.20;;;;;;5058436;28;20704;-22
2022/03/22 10:56:55;;;;;;;5.23;4.73;;;21.00;45.20;;;;;;5059303;28;20175;-22
2022/03/22 10:59:24;;;;;;;7.43;5.10;;;21.00;45.10;;;;;;5072288;28;20205;-20
2022/03/22 11:01:52;;;;;;;6.77;4.83;;;21.00;45.20;;;;;;5074374;28;20577;-18
2022/03/22 11:04:22;;;;;;;9.47;5.17;;;21.00;45.20;;;;;;5056240;28;20186;-23
2022/03/22 11:06:48;;;;;;;6.30;4.87;;;21.00;45.20;;;;;;5056547;28;20202;-21
2022/03/22 11:09:18;;;;;;;7.70;4.87;;;20.90;45.20;;;;;;5055896;28;20730;-19
2022/03/22 11:11:44;;;;;;;6.80;5.10;;;20.90;45.00;;;;;;5057124;28;20174;-20
2022/03/22 11:14:15;;;;;;;6.70;5.10;;;20.90;44.90;;;;;;5073912;28;20175;-21
2022/03/22 11:16:46;;;;;;;6.90;4.77;;;20.90;45.10;;;;;;5073341;28;20209;-18
2022/03/22 11:19:12;;;;;;;5.37;4.67;;;20.90;45.20;;;;;;5056591;28;20289;-21
2022/03/22 11:21:38;;;;;;;5.93;4.73;;;20.90;45.30;;;;;;5074327;28;20175;-20
2022/03/22 11:24:12;;;;;;;5.27;4.73;;;20.90;45.10;;;;;;5056499;28;20196;-21
2022/03/22 11:26:44;;;;;;;5.23;4.73;;;20.90;44.90;;;;;;5056775;28;20653;-20
2022/03/22 11:29:13;;;;;;;6.83;4.70;;;20.90;45.00;;;;;;5076864;28;20450;-20
2022/03/22 11:31:40;;;;;;;5.93;4.77;;;20.90;45.10;;;;;;5074311;28;20180;-17
2022/03/22 11:34:11;;;;;;;5.73;4.57;;;20.90;44.80;;;;;;5056551;28;20185;-18
2022/03/22 11:36:46;;;;;;;7.27;4.87;;;20.90;44.60;;;;;;5058406;28;20244;-21
2022/03/22 11:42:15;;;;;;;5.77;4.77;;;20.80;44.60;;;;;;5040964;28;20480;-21
2022/03/22 11:42:17;;;;;;;8.93;4.80;;;20.80;44.90;;;;;;5070215;28;20187;-18
2022/03/22 11:44:58;;;;;;;5.47;4.60;;;20.80;44.90;;;;;;5059785;28;20658;-20
2022/03/22 11:47:25;;;;;;;7.17;4.23;;;20.80;45.00;;;;;;5077823;28;20191;-21
2022/03/22 11:49:55;;;;;;;6.47;4.07;;;20.80;45.00;;;;;;5080541;28;20227;-19
2022/03/22 11:52:23;;;;;;;5.17;4.13;;;20.80;45.00;;;;;;5070846;28;20274;-18
2022/03/22 11:55:05;;;;;;;5.03;4.23;;;20.80;45.00;;;;;;5070578;28;20232;-19
2022/03/22 11:57:43;;;;;;;5.57;4.37;;;20.80;45.10;;;;;;5080429;28;20176;-19
2022/03/22 12:00:11;;;;;;;6.30;4.33;;;20.80;45.00;;;;;;5081535;28;20205;-19
2022/03/22 12:02:38;;;;;;;6.47;4.87;;;20.70;44.70;;;;;;5089295;28;20592;-18
2022/03/22 12:05:04;;;;;;;6.00;4.07;;;20.70;44.30;;;;;;5071423;28;20580;-17
2022/03/22 12:07:34;;;;;;;7.50;4.60;;;20.70;44.70;;;;;;5081612;28;20274;-17
2022/03/22 12:10:08;;;;;;;5.43;4.00;;;20.70;44.50;;;;;;5078574;28;20194;-21
2022/03/22 12:12:35;;;;;;;6.53;4.33;;;20.70;44.40;;;;;;5084844;28;20473;-21
2022/03/22 12:15:04;;;;;;;4.53;3.90;;;20.70;44.50;;;;;;5070270;28;20206;-18
2022/03/22 12:17:30;;;;;;;5.47;4.03;;;20.70;44.60;;;;;;5061292;28;20460;-19
2022/03/22 12:20:00;;;;;;;5.90;4.27;;;20.60;44.70;;;;;;5085788;28;20579;-17
2022/03/22 12:22:27;;;;;;;5.70;4.10;;;20.60;44.60;;;;;;5078419;28;20175;-19
2022/03/22 12:24:57;;;;;;;5.87;4.03;;;20.60;44.30;;;;;;5076652;28;20166;-18
2022/03/22 12:27:23;;;;;;;6.07;4.27;;;20.60;44.40;;;;;;5059199;28;20195;-18
2022/03/22 12:29:49;;;;;;;6.67;4.27;;;20.60;44.50;;;;;;5078733;28;20239;-18
2022/03/22 12:32:21;;;;;;;6.33;4.47;;;20.60;44.50;;;;;;5062355;28;20195;-21
2022/03/22 12:34:49;;;;;;;6.77;4.30;;;20.60;44.90;;;;;;5082905;28;20178;-18
2022/03/22 12:37:16;;;;;;;6.13;4.10;;;20.60;44.60;;;;;;5076812;28;20765;-20
2022/03/22 12:39:44;;;;;;;7.37;4.30;;;20.60;44.70;;;;;;5073715;28;20508;-18
2022/03/22 12:42:12;;;;;;;4.73;4.20;;;20.50;44.30;;;;;;5058700;28;20266;-20
2022/03/22 12:44:38;;;;;;;5.83;4.27;;;20.50;44.40;;;;;;5075578;28;20343;-21
2022/03/22 12:47:05;;;;;;;6.33;4.37;;;20.40;44.20;;;;;;5059389;28;20294;-19
2022/03/22 12:49:39;;;;;;;8.47;4.23;;;20.40;44.30;;;;;;5059039;28;20168;-20
2022/03/22 12:52:10;;;;;;;6.97;4.47;;;20.40;44.20;;;;;;5075215;28;20166;-20
2022/03/22 12:54:41;;;;;;;5.37;3.90;;;20.40;44.20;;;;;;5058507;28;20163;-17
2022/03/22 12:57:09;;;;;;;8.43;4.83;;;20.40;44.20;;;;;;5057127;28;20468;-19
2022/03/22 12:59:35;;;;;;;11.37;4.30;;;20.40;44.20;;;;;;5067111;28;20658;-20
2022/03/22 13:02:06;;;;;;;7.07;4.37;;;20.30;44.00;;;;;;5084809;28;20263;-18
2022/03/22 13:04:46;;;;;;;8.20;4.40;;;20.30;44.00;;;;;;5081466;28;20229;-19
2022/03/22 13:07:12;;;;;;;9.50;4.00;;;20.30;44.10;;;;;;5058477;28;20214;-17
2022/03/22 13:12:22;;;;;;;5.90;4.40;;;20.30;44.10;;;;;;5089488;28;20243;-17
2022/03/22 13:15:17;;;;;;;7.93;3.90;;;20.30;44.00;;;;;;5067472;28;20639;-20
2022/03/22 13:17:48;;;;;;;5.80;4.10;;;20.30;44.10;;;;;;5054774;28;20217;-20
2022/03/22 13:20:21;;;;;;;6.80;4.27;;;20.20;44.10;;;;;;5064921;28;20487;-21
2022/03/22 13:22:51;;;;;;;5.23;3.63;;;20.20;44.10;;;;;;5075401;28;20605;-17
2022/03/22 13:25:18;;;;;;;8.03;3.97;;;20.20;44.10;;;;;;5075419;28;20278;-20
2022/03/22 13:27:52;;;;;;;4.90;3.40;;;20.20;44.00;;;;;;5058141;28;20204;-19